sensor_id;sensor_type;location;lat;lon;timestamp;temperature;humidity
33827;DHT22;20128;45.582;5.298;2023-11-19T00:00:26;9.40;87.70
33827;DHT22;20128;45.582;5.298;2023-11-19T00:02:52;9.40;87.60
33827;DHT22;20128;45.582;5.298;2023-11-19T00:05:18;9.40;87.60
33827;DHT22;20128;45.582;5.298;2023-11-19T00:07:44;9.50;87.60
33827;DHT22;20128;45.582;5.298;2023-11-19T00:10:11;9.40;87.50
33827;DHT22;20128;45.582;5.298;2023-11-19T00:12:44;9.40;87.30
33827;DHT22;20128;45.582;5.298;2023-11-19T00:15:10;9.40;87.20
33827;DHT22;20128;45.582;5.298;2023-11-19T00:17:39;9.50;87.30
33827;DHT22;20128;45.582;5.298;2023-11-19T00:20:15;9.40;87.30
33827;DHT22;20128;45.582;5.298;2023-11-19T00:22:42;9.40;88.10
33827;DHT22;20128;45.582;5.298;2023-11-19T00:25:08;9.40;87.50
33827;DHT22;20128;45.582;5.298;2023-11-19T00:27:34;9.40;87.50
33827;DHT22;20128;45.582;5.298;2023-11-19T00:30:00;9.40;87.60
33827;DHT22;20128;45.582;5.298;2023-11-19T00:32:25;9.40;87.70
33827;DHT22;20128;45.582;5.298;2023-11-19T00:34:51;9.50;87.70
33827;DHT22;20128;45.582;5.298;2023-11-19T00:37:17;9.50;87.80
33827;DHT22;20128;45.582;5.298;2023-11-19T00:39:43;9.50;88.30
33827;DHT22;20128;45.582;5.298;2023-11-19T00:42:09;9.50;88.00
33827;DHT22;20128;45.582;5.298;2023-11-19T00:44:35;9.40;88.00
33827;DHT22;20128;45.582;5.298;2023-11-19T00:47:01;9.50;87.90
33827;DHT22;20128;45.582;5.298;2023-11-19T00:49:27;9.50;87.80
33827;DHT22;20128;45.582;5.298;2023-11-19T00:51:52;9.50;87.80
33827;DHT22;20128;45.582;5.298;2023-11-19T00:54:18;9.50;88.20
33827;DHT22;20128;45.582;5.298;2023-11-19T00:56:44;9.50;87.60
33827;DHT22;20128;45.582;5.298;2023-11-19T00:59:10;9.50;87.60
33827;DHT22;20128;45.582;5.298;2023-11-19T01:01:36;9.50;87.60
33827;DHT22;20128;45.582;5.298;2023-11-19T01:04:01;9.40;87.70
33827;DHT22;20128;45.582;5.298;2023-11-19T01:06:30;9.50;87.80
33827;DHT22;20128;45.582;5.298;2023-11-19T01:08:57;9.40;87.80
33827;DHT22;20128;45.582;5.298;2023-11-19T01:11:23;9.40;87.80
33827;DHT22;20128;45.582;5.298;2023-11-19T01:13:49;9.40;87.80
33827;DHT22;20128;45.582;5.298;2023-11-19T01:16:15;9.40;87.80
33827;DHT22;20128;45.582;5.298;2023-11-19T01:18:41;9.40;87.80
33827;DHT22;20128;45.582;5.298;2023-11-19T01:21:07;9.50;87.90
33827;DHT22;20128;45.582;5.298;2023-11-19T01:23:32;9.40;87.90
33827;DHT22;20128;45.582;5.298;2023-11-19T01:25:59;9.50;88.10
33827;DHT22;20128;45.582;5.298;2023-11-19T01:28:25;9.40;88.10
33827;DHT22;20128;45.582;5.298;2023-11-19T01:30:51;9.50;88.30
33827;DHT22;20128;45.582;5.298;2023-11-19T01:33:16;9.50;88.20
33827;DHT22;20128;45.582;5.298;2023-11-19T01:35:42;9.50;88.20
33827;DHT22;20128;45.582;5.298;2023-11-19T01:38:07;9.50;88.20
33827;DHT22;20128;45.582;5.298;2023-11-19T01:40:36;9.60;88.30
33827;DHT22;20128;45.582;5.298;2023-11-19T01:43:03;9.60;88.20
33827;DHT22;20128;45.582;5.298;2023-11-19T01:45:30;9.50;88.20
33827;DHT22;20128;45.582;5.298;2023-11-19T01:47:57;9.50;88.10
33827;DHT22;20128;45.582;5.298;2023-11-19T01:50:23;9.50;88.30
33827;DHT22;20128;45.582;5.298;2023-11-19T01:52:55;9.50;88.30
33827;DHT22;20128;45.582;5.298;2023-11-19T01:55:26;9.50;88.30
33827;DHT22;20128;45.582;5.298;2023-11-19T01:57:55;9.50;88.40
33827;DHT22;20128;45.582;5.298;2023-11-19T02:00:24;9.40;88.30
33827;DHT22;20128;45.582;5.298;2023-11-19T02:02:51;9.40;88.50
33827;DHT22;20128;45.582;5.298;2023-11-19T02:05:17;9.30;88.50
33827;DHT22;20128;45.582;5.298;2023-11-19T02:07:43;9.40;88.70
33827;DHT22;20128;45.582;5.298;2023-11-19T02:10:09;9.40;88.60
33827;DHT22;20128;45.582;5.298;2023-11-19T02:12:42;9.40;88.50
33827;DHT22;20128;45.582;5.298;2023-11-19T02:15:09;9.40;88.60
33827;DHT22;20128;45.582;5.298;2023-11-19T02:17:35;9.40;88.80
33827;DHT22;20128;45.582;5.298;2023-11-19T02:20:06;9.40;88.60
33827;DHT22;20128;45.582;5.298;2023-11-19T02:22:34;9.40;88.50
33827;DHT22;20128;45.582;5.298;2023-11-19T02:25:04;9.50;88.60
33827;DHT22;20128;45.582;5.298;2023-11-19T02:27:48;9.40;88.80
33827;DHT22;20128;45.582;5.298;2023-11-19T02:30:17;9.40;89.00
33827;DHT22;20128;45.582;5.298;2023-11-19T02:32:43;9.40;89.00
33827;DHT22;20128;45.582;5.298;2023-11-19T02:35:08;9.40;89.00
33827;DHT22;20128;45.582;5.298;2023-11-19T02:37:35;9.50;89.10
33827;DHT22;20128;45.582;5.298;2023-11-19T02:40:00;9.60;89.30
33827;DHT22;20128;45.582;5.298;2023-11-19T02:42:28;9.60;89.40
33827;DHT22;20128;45.582;5.298;2023-11-19T02:44:54;9.60;89.30
33827;DHT22;20128;45.582;5.298;2023-11-19T02:47:19;9.60;89.50
33827;DHT22;20128;45.582;5.298;2023-11-19T02:49:46;9.70;89.50
33827;DHT22;20128;45.582;5.298;2023-11-19T02:52:13;9.70;89.50
33827;DHT22;20128;45.582;5.298;2023-11-19T02:54:40;9.70;89.30
33827;DHT22;20128;45.582;5.298;2023-11-19T02:57:06;9.70;89.40
33827;DHT22;20128;45.582;5.298;2023-11-19T02:59:39;9.70;89.40
33827;DHT22;20128;45.582;5.298;2023-11-19T03:02:08;9.70;89.60
33827;DHT22;20128;45.582;5.298;2023-11-19T03:04:38;9.80;89.70
33827;DHT22;20128;45.582;5.298;2023-11-19T03:07:05;9.80;89.60
33827;DHT22;20128;45.582;5.298;2023-11-19T03:09:31;9.80;89.60
33827;DHT22;20128;45.582;5.298;2023-11-19T03:11:56;9.80;89.70
33827;DHT22;20128;45.582;5.298;2023-11-19T03:14:22;9.80;89.70
33827;DHT22;20128;45.582;5.298;2023-11-19T03:16:48;9.80;89.50
33827;DHT22;20128;45.582;5.298;2023-11-19T03:19:14;9.80;89.30
33827;DHT22;20128;45.582;5.298;2023-11-19T03:21:40;9.80;89.50
33827;DHT22;20128;45.582;5.298;2023-11-19T03:24:06;9.80;89.50
33827;DHT22;20128;45.582;5.298;2023-11-19T03:26:32;9.80;89.50
33827;DHT22;20128;45.582;5.298;2023-11-19T03:28:59;9.70;89.60
33827;DHT22;20128;45.582;5.298;2023-11-19T03:31:25;9.70;89.90
33827;DHT22;20128;45.582;5.298;2023-11-19T03:33:51;9.70;90.00
33827;DHT22;20128;45.582;5.298;2023-11-19T03:36:16;9.70;90.00
33827;DHT22;20128;45.582;5.298;2023-11-19T03:38:43;9.70;90.00
33827;DHT22;20128;45.582;5.298;2023-11-19T03:41:15;9.80;90.00
33827;DHT22;20128;45.582;5.298;2023-11-19T03:43:42;9.80;90.10
33827;DHT22;20128;45.582;5.298;2023-11-19T03:46:26;9.80;90.10
33827;DHT22;20128;45.582;5.298;2023-11-19T03:48:52;9.90;90.10
33827;DHT22;20128;45.582;5.298;2023-11-19T03:51:18;9.90;90.10
33827;DHT22;20128;45.582;5.298;2023-11-19T03:53:46;9.90;90.10
33827;DHT22;20128;45.582;5.298;2023-11-19T03:56:12;9.90;90.10
33827;DHT22;20128;45.582;5.298;2023-11-19T03:58:39;10.00;90.10
33827;DHT22;20128;45.582;5.298;2023-11-19T04:01:05;9.90;90.10
33827;DHT22;20128;45.582;5.298;2023-11-19T04:03:31;10.00;90.20
33827;DHT22;20128;45.582;5.298;2023-11-19T04:05:57;10.00;90.30
33827;DHT22;20128;45.582;5.298;2023-11-19T04:08:23;10.00;90.30
33827;DHT22;20128;45.582;5.298;2023-11-19T04:10:48;10.10;90.60
33827;DHT22;20128;45.582;5.298;2023-11-19T04:13:14;10.00;90.30
33827;DHT22;20128;45.582;5.298;2023-11-19T04:15:39;10.00;90.30
33827;DHT22;20128;45.582;5.298;2023-11-19T04:18:05;10.00;90.30
33827;DHT22;20128;45.582;5.298;2023-11-19T04:20:31;10.00;90.30
33827;DHT22;20128;45.582;5.298;2023-11-19T04:22:57;10.10;90.30
33827;DHT22;20128;45.582;5.298;2023-11-19T04:25:23;10.10;90.30
33827;DHT22;20128;45.582;5.298;2023-11-19T04:27:51;10.10;90.30
33827;DHT22;20128;45.582;5.298;2023-11-19T04:30:17;10.10;90.40
33827;DHT22;20128;45.582;5.298;2023-11-19T04:32:44;10.10;90.40
33827;DHT22;20128;45.582;5.298;2023-11-19T04:35:09;10.10;90.50
33827;DHT22;20128;45.582;5.298;2023-11-19T04:37:35;10.10;90.50
33827;DHT22;20128;45.582;5.298;2023-11-19T04:40:01;10.10;90.50
33827;DHT22;20128;45.582;5.298;2023-11-19T04:42:27;10.00;90.70
33827;DHT22;20128;45.582;5.298;2023-11-19T04:44:52;10.10;90.80
33827;DHT22;20128;45.582;5.298;2023-11-19T04:47:18;10.00;90.80
33827;DHT22;20128;45.582;5.298;2023-11-19T04:49:43;10.10;90.80
33827;DHT22;20128;45.582;5.298;2023-11-19T04:52:09;10.10;90.70
33827;DHT22;20128;45.582;5.298;2023-11-19T04:54:35;10.10;90.80
33827;DHT22;20128;45.582;5.298;2023-11-19T04:57:00;10.10;90.90
33827;DHT22;20128;45.582;5.298;2023-11-19T04:59:26;10.10;90.90
33827;DHT22;20128;45.582;5.298;2023-11-19T05:01:53;10.10;90.90
33827;DHT22;20128;45.582;5.298;2023-11-19T05:04:18;10.10;91.00
33827;DHT22;20128;45.582;5.298;2023-11-19T05:06:44;10.10;91.00
33827;DHT22;20128;45.582;5.298;2023-11-19T05:09:10;10.10;91.00
33827;DHT22;20128;45.582;5.298;2023-11-19T05:11:38;10.10;91.00
33827;DHT22;20128;45.582;5.298;2023-11-19T05:14:04;10.10;91.10
33827;DHT22;20128;45.582;5.298;2023-11-19T05:16:31;10.20;91.10
33827;DHT22;20128;45.582;5.298;2023-11-19T05:18:57;10.10;91.10
33827;DHT22;20128;45.582;5.298;2023-11-19T05:21:22;10.20;91.20
33827;DHT22;20128;45.582;5.298;2023-11-19T05:23:49;10.20;91.20
33827;DHT22;20128;45.582;5.298;2023-11-19T05:26:21;10.20;91.10
33827;DHT22;20128;45.582;5.298;2023-11-19T05:28:47;10.20;91.10
33827;DHT22;20128;45.582;5.298;2023-11-19T05:31:13;10.20;91.10
33827;DHT22;20128;45.582;5.298;2023-11-19T05:33:39;10.20;91.10
33827;DHT22;20128;45.582;5.298;2023-11-19T05:36:05;10.20;91.10
33827;DHT22;20128;45.582;5.298;2023-11-19T05:38:31;10.20;91.00
33827;DHT22;20128;45.582;5.298;2023-11-19T05:40:56;10.20;91.00
33827;DHT22;20128;45.582;5.298;2023-11-19T05:43:22;10.20;91.00
33827;DHT22;20128;45.582;5.298;2023-11-19T05:45:48;10.20;91.00
33827;DHT22;20128;45.582;5.298;2023-11-19T05:48:13;10.30;91.10
33827;DHT22;20128;45.582;5.298;2023-11-19T05:50:39;10.20;91.00
33827;DHT22;20128;45.582;5.298;2023-11-19T05:53:05;10.30;91.10
33827;DHT22;20128;45.582;5.298;2023-11-19T05:55:35;10.20;91.10
33827;DHT22;20128;45.582;5.298;2023-11-19T05:58:01;10.30;91.20
33827;DHT22;20128;45.582;5.298;2023-11-19T06:00:28;10.20;91.20
33827;DHT22;20128;45.582;5.298;2023-11-19T06:02:54;10.20;91.20
33827;DHT22;20128;45.582;5.298;2023-11-19T06:05:19;10.20;91.30
33827;DHT22;20128;45.582;5.298;2023-11-19T06:07:45;10.20;91.40
33827;DHT22;20128;45.582;5.298;2023-11-19T06:10:11;10.20;91.40
33827;DHT22;20128;45.582;5.298;2023-11-19T06:12:39;10.20;91.40
33827;DHT22;20128;45.582;5.298;2023-11-19T06:15:07;10.20;91.40
33827;DHT22;20128;45.582;5.298;2023-11-19T06:17:34;10.20;91.40
33827;DHT22;20128;45.582;5.298;2023-11-19T06:19:59;10.20;91.40
33827;DHT22;20128;45.582;5.298;2023-11-19T06:22:25;10.10;91.40
33827;DHT22;20128;45.582;5.298;2023-11-19T06:24:50;10.10;91.40
33827;DHT22;20128;45.582;5.298;2023-11-19T06:27:16;10.10;91.40
33827;DHT22;20128;45.582;5.298;2023-11-19T06:29:42;10.10;91.40
33827;DHT22;20128;45.582;5.298;2023-11-19T06:32:07;10.00;91.40
33827;DHT22;20128;45.582;5.298;2023-11-19T06:34:34;10.00;91.60
33827;DHT22;20128;45.582;5.298;2023-11-19T06:36:59;10.00;91.40
33827;DHT22;20128;45.582;5.298;2023-11-19T06:39:25;10.10;91.40
33827;DHT22;20128;45.582;5.298;2023-11-19T06:41:52;10.00;91.40
33827;DHT22;20128;45.582;5.298;2023-11-19T06:44:17;10.00;91.40
33827;DHT22;20128;45.582;5.298;2023-11-19T06:46:43;10.00;91.30
33827;DHT22;20128;45.582;5.298;2023-11-19T06:49:09;10.00;91.30
33827;DHT22;20128;45.582;5.298;2023-11-19T06:51:34;10.00;91.30
33827;DHT22;20128;45.582;5.298;2023-11-19T06:54:00;9.90;91.20
33827;DHT22;20128;45.582;5.298;2023-11-19T06:56:26;9.90;91.20
33827;DHT22;20128;45.582;5.298;2023-11-19T06:58:52;9.90;91.10
33827;DHT22;20128;45.582;5.298;2023-11-19T07:01:19;9.90;91.10
33827;DHT22;20128;45.582;5.298;2023-11-19T07:03:46;9.80;91.20
33827;DHT22;20128;45.582;5.298;2023-11-19T07:06:12;9.90;91.20
33827;DHT22;20128;45.582;5.298;2023-11-19T07:08:38;9.80;91.20
33827;DHT22;20128;45.582;5.298;2023-11-19T07:11:04;9.80;91.20
33827;DHT22;20128;45.582;5.298;2023-11-19T07:13:30;9.80;91.20
33827;DHT22;20128;45.582;5.298;2023-11-19T07:15:56;9.80;91.10
33827;DHT22;20128;45.582;5.298;2023-11-19T07:18:22;9.70;91.10
33827;DHT22;20128;45.582;5.298;2023-11-19T07:20:49;9.70;91.20
33827;DHT22;20128;45.582;5.298;2023-11-19T07:23:14;9.70;91.20
33827;DHT22;20128;45.582;5.298;2023-11-19T07:25:42;9.70;91.20
33827;DHT22;20128;45.582;5.298;2023-11-19T07:28:08;9.60;91.30
33827;DHT22;20128;45.582;5.298;2023-11-19T07:30:35;9.60;91.40
33827;DHT22;20128;45.582;5.298;2023-11-19T07:33:01;9.70;91.50
33827;DHT22;20128;45.582;5.298;2023-11-19T07:35:29;9.60;91.50
33827;DHT22;20128;45.582;5.298;2023-11-19T07:37:56;9.60;91.60
33827;DHT22;20128;45.582;5.298;2023-11-19T07:40:23;9.50;91.70
33827;DHT22;20128;45.582;5.298;2023-11-19T07:42:48;9.50;91.80
33827;DHT22;20128;45.582;5.298;2023-11-19T07:45:14;9.60;91.90
33827;DHT22;20128;45.582;5.298;2023-11-19T07:47:40;9.50;92.00
33827;DHT22;20128;45.582;5.298;2023-11-19T07:50:06;9.50;92.20
33827;DHT22;20128;45.582;5.298;2023-11-19T07:52:31;9.50;92.20
33827;DHT22;20128;45.582;5.298;2023-11-19T07:54:57;9.50;92.30
33827;DHT22;20128;45.582;5.298;2023-11-19T07:57:23;9.50;92.50
33827;DHT22;20128;45.582;5.298;2023-11-19T07:59:49;9.60;92.60
33827;DHT22;20128;45.582;5.298;2023-11-19T08:02:15;9.60;92.70
33827;DHT22;20128;45.582;5.298;2023-11-19T08:04:41;9.70;92.70
33827;DHT22;20128;45.582;5.298;2023-11-19T08:07:10;9.80;92.50
33827;DHT22;20128;45.582;5.298;2023-11-19T08:09:36;9.90;92.30
33827;DHT22;20128;45.582;5.298;2023-11-19T08:12:03;10.00;92.10
33827;DHT22;20128;45.582;5.298;2023-11-19T08:14:29;10.10;92.20
33827;DHT22;20128;45.582;5.298;2023-11-19T08:16:54;10.20;92.10
33827;DHT22;20128;45.582;5.298;2023-11-19T08:19:20;10.20;92.00
33827;DHT22;20128;45.582;5.298;2023-11-19T08:21:46;10.20;92.10
33827;DHT22;20128;45.582;5.298;2023-11-19T08:24:11;10.30;92.10
33827;DHT22;20128;45.582;5.298;2023-11-19T08:26:37;10.40;92.00
33827;DHT22;20128;45.582;5.298;2023-11-19T08:29:03;10.40;92.00
33827;DHT22;20128;45.582;5.298;2023-11-19T08:31:28;10.40;91.70
33827;DHT22;20128;45.582;5.298;2023-11-19T08:33:54;10.40;91.40
33827;DHT22;20128;45.582;5.298;2023-11-19T08:36:19;10.50;91.60
33827;DHT22;20128;45.582;5.298;2023-11-19T08:38:46;10.50;91.70
33827;DHT22;20128;45.582;5.298;2023-11-19T08:41:12;10.70;91.90
33827;DHT22;20128;45.582;5.298;2023-11-19T08:43:37;11.00;91.90
33827;DHT22;20128;45.582;5.298;2023-11-19T08:46:04;11.20;91.70
33827;DHT22;20128;45.582;5.298;2023-11-19T08:48:29;11.30;91.70
33827;DHT22;20128;45.582;5.298;2023-11-19T08:50:55;11.30;91.60
33827;DHT22;20128;45.582;5.298;2023-11-19T08:53:21;11.40;91.70
33827;DHT22;20128;45.582;5.298;2023-11-19T08:55:47;11.50;91.60
33827;DHT22;20128;45.582;5.298;2023-11-19T08:58:12;11.60;91.50
33827;DHT22;20128;45.582;5.298;2023-11-19T09:00:38;11.80;91.50
33827;DHT22;20128;45.582;5.298;2023-11-19T09:03:03;12.00;91.20
33827;DHT22;20128;45.582;5.298;2023-11-19T09:05:29;12.20;91.00
33827;DHT22;20128;45.582;5.298;2023-11-19T09:07:55;12.30;90.40
33827;DHT22;20128;45.582;5.298;2023-11-19T09:10:20;12.40;90.30
33827;DHT22;20128;45.582;5.298;2023-11-19T09:12:46;12.60;90.10
33827;DHT22;20128;45.582;5.298;2023-11-19T09:15:11;12.80;89.20
33827;DHT22;20128;45.582;5.298;2023-11-19T09:17:37;12.90;89.60
33827;DHT22;20128;45.582;5.298;2023-11-19T09:20:03;13.10;88.90
33827;DHT22;20128;45.582;5.298;2023-11-19T09:22:28;13.20;88.70
33827;DHT22;20128;45.582;5.298;2023-11-19T09:24:55;13.40;88.40
33827;DHT22;20128;45.582;5.298;2023-11-19T09:27:21;13.40;88.00
33827;DHT22;20128;45.582;5.298;2023-11-19T09:29:46;13.50;88.10
33827;DHT22;20128;45.582;5.298;2023-11-19T09:32:14;13.70;88.10
33827;DHT22;20128;45.582;5.298;2023-11-19T09:34:39;13.90;87.90
33827;DHT22;20128;45.582;5.298;2023-11-19T09:37:05;14.00;87.10
33827;DHT22;20128;45.582;5.298;2023-11-19T09:39:31;14.20;86.60
33827;DHT22;20128;45.582;5.298;2023-11-19T09:41:56;14.30;86.60
33827;DHT22;20128;45.582;5.298;2023-11-19T09:44:23;14.50;85.50
33827;DHT22;20128;45.582;5.298;2023-11-19T09:46:49;14.70;85.10
33827;DHT22;20128;45.582;5.298;2023-11-19T09:49:20;14.90;85.00
33827;DHT22;20128;45.582;5.298;2023-11-19T09:51:50;15.10;83.50
33827;DHT22;20128;45.582;5.298;2023-11-19T09:54:15;15.20;83.70
33827;DHT22;20128;45.582;5.298;2023-11-19T09:56:41;15.30;82.90
33827;DHT22;20128;45.582;5.298;2023-11-19T09:59:07;15.50;82.80
33827;DHT22;20128;45.582;5.298;2023-11-19T10:06:46;16.00;82.10
33827;DHT22;20128;45.582;5.298;2023-11-19T10:09:12;16.20;81.80
33827;DHT22;20128;45.582;5.298;2023-11-19T10:11:40;16.40;81.40
33827;DHT22;20128;45.582;5.298;2023-11-19T10:14:06;16.60;80.80
33827;DHT22;20128;45.582;5.298;2023-11-19T10:16:34;16.80;79.90
33827;DHT22;20128;45.582;5.298;2023-11-19T10:19:00;17.00;79.10
33827;DHT22;20128;45.582;5.298;2023-11-19T10:21:25;17.20;78.30
33827;DHT22;20128;45.582;5.298;2023-11-19T10:23:57;17.20;77.60
33827;DHT22;20128;45.582;5.298;2023-11-19T10:26:26;17.10;77.10
33827;DHT22;20128;45.582;5.298;2023-11-19T10:28:52;16.90;77.00
33827;DHT22;20128;45.582;5.298;2023-11-19T10:31:19;16.70;76.30
33827;DHT22;20128;45.582;5.298;2023-11-19T10:33:48;16.60;76.80
33827;DHT22;20128;45.582;5.298;2023-11-19T10:36:14;16.30;77.10
33827;DHT22;20128;45.582;5.298;2023-11-19T10:38:40;16.20;77.70
33827;DHT22;20128;45.582;5.298;2023-11-19T10:41:06;16.10;78.10
33827;DHT22;20128;45.582;5.298;2023-11-19T10:43:45;16.00;78.60
33827;DHT22;20128;45.582;5.298;2023-11-19T10:46:12;15.90;79.10
33827;DHT22;20128;45.582;5.298;2023-11-19T10:48:38;15.90;79.40
33827;DHT22;20128;45.582;5.298;2023-11-19T10:51:06;15.90;79.50
33827;DHT22;20128;45.582;5.298;2023-11-19T10:53:37;15.90;79.40
33827;DHT22;20128;45.582;5.298;2023-11-19T10:56:06;15.90;79.50
33827;DHT22;20128;45.582;5.298;2023-11-19T10:58:36;15.90;79.80
33827;DHT22;20128;45.582;5.298;2023-11-19T11:01:11;15.80;79.90
33827;DHT22;20128;45.582;5.298;2023-11-19T11:03:42;15.80;80.00
33827;DHT22;20128;45.582;5.298;2023-11-19T11:06:08;15.80;80.00
33827;DHT22;20128;45.582;5.298;2023-11-19T11:08:36;15.70;80.20
33827;DHT22;20128;45.582;5.298;2023-11-19T11:11:03;15.60;80.20
33827;DHT22;20128;45.582;5.298;2023-11-19T11:13:31;15.50;80.50
33827;DHT22;20128;45.582;5.298;2023-11-19T11:15:57;15.50;80.70
33827;DHT22;20128;45.582;5.298;2023-11-19T11:18:24;15.40;80.70
33827;DHT22;20128;45.582;5.298;2023-11-19T11:29:20;15.20;81.80
33827;DHT22;20128;45.582;5.298;2023-11-19T11:35:03;15.20;82.20
33827;DHT22;20128;45.582;5.298;2023-11-19T11:37:49;15.10;82.50
33827;DHT22;20128;45.582;5.298;2023-11-19T11:40:16;15.10;82.70
33827;DHT22;20128;45.582;5.298;2023-11-19T11:42:44;15.10;82.90
33827;DHT22;20128;45.582;5.298;2023-11-19T11:45:14;15.10;83.10
33827;DHT22;20128;45.582;5.298;2023-11-19T11:50:17;15.20;83.30
33827;DHT22;20128;45.582;5.298;2023-11-19T11:55:24;15.30;83.50
33827;DHT22;20128;45.582;5.298;2023-11-19T11:57:50;15.30;83.50
33827;DHT22;20128;45.582;5.298;2023-11-19T12:00:27;15.30;83.50
33827;DHT22;20128;45.582;5.298;2023-11-19T12:02:57;15.40;83.60
33827;DHT22;20128;45.582;5.298;2023-11-19T12:05:24;15.40;83.60
33827;DHT22;20128;45.582;5.298;2023-11-19T12:07:57;15.50;83.60
33827;DHT22;20128;45.582;5.298;2023-11-19T12:10:25;15.60;83.60
33827;DHT22;20128;45.582;5.298;2023-11-19T12:12:58;15.70;83.50
33827;DHT22;20128;45.582;5.298;2023-11-19T12:15:24;15.70;83.60
33827;DHT22;20128;45.582;5.298;2023-11-19T12:17:52;15.80;83.50
33827;DHT22;20128;45.582;5.298;2023-11-19T12:20:19;15.80;83.50
33827;DHT22;20128;45.582;5.298;2023-11-19T12:22:47;15.90;83.70
33827;DHT22;20128;45.582;5.298;2023-11-19T12:25:15;15.90;83.80
33827;DHT22;20128;45.582;5.298;2023-11-19T12:27:49;15.90;83.80
33827;DHT22;20128;45.582;5.298;2023-11-19T12:30:25;15.90;83.90
33827;DHT22;20128;45.582;5.298;2023-11-19T12:32:52;15.90;84.10
33827;DHT22;20128;45.582;5.298;2023-11-19T12:35:21;15.90;84.30
33827;DHT22;20128;45.582;5.298;2023-11-19T12:37:49;15.90;84.50
33827;DHT22;20128;45.582;5.298;2023-11-19T12:40:15;15.90;84.50
33827;DHT22;20128;45.582;5.298;2023-11-19T12:42:43;15.90;84.70
33827;DHT22;20128;45.582;5.298;2023-11-19T12:45:09;15.90;84.90
33827;DHT22;20128;45.582;5.298;2023-11-19T12:47:36;15.90;85.10
33827;DHT22;20128;45.582;5.298;2023-11-19T12:50:02;15.90;85.40
33827;DHT22;20128;45.582;5.298;2023-11-19T12:52:29;15.90;85.70
33827;DHT22;20128;45.582;5.298;2023-11-19T12:54:55;15.90;85.80
33827;DHT22;20128;45.582;5.298;2023-11-19T12:57:41;15.90;86.10
33827;DHT22;20128;45.582;5.298;2023-11-19T13:00:07;15.90;86.30
33827;DHT22;20128;45.582;5.298;2023-11-19T13:02:53;15.80;86.40
33827;DHT22;20128;45.582;5.298;2023-11-19T13:05:32;15.80;86.80
33827;DHT22;20128;45.582;5.298;2023-11-19T13:08:05;15.90;86.90
33827;DHT22;20128;45.582;5.298;2023-11-19T13:10:52;15.80;87.00
33827;DHT22;20128;45.582;5.298;2023-11-19T13:13:19;15.80;87.10
33827;DHT22;20128;45.582;5.298;2023-11-19T13:15:45;15.80;87.10
33827;DHT22;20128;45.582;5.298;2023-11-19T13:18:12;15.80;87.00
33827;DHT22;20128;45.582;5.298;2023-11-19T13:20:38;15.80;87.00
33827;DHT22;20128;45.582;5.298;2023-11-19T13:23:05;15.80;86.90
33827;DHT22;20128;45.582;5.298;2023-11-19T13:25:31;15.80;86.90
33827;DHT22;20128;45.582;5.298;2023-11-19T13:27:58;15.80;86.80
33827;DHT22;20128;45.582;5.298;2023-11-19T13:30:24;15.80;86.60
33827;DHT22;20128;45.582;5.298;2023-11-19T13:32:51;15.90;86.60
33827;DHT22;20128;45.582;5.298;2023-11-19T13:35:17;15.90;86.90
33827;DHT22;20128;45.582;5.298;2023-11-19T13:37:44;15.90;87.10
33827;DHT22;20128;45.582;5.298;2023-11-19T13:40:10;15.90;87.30
33827;DHT22;20128;45.582;5.298;2023-11-19T13:42:41;15.90;87.50
33827;DHT22;20128;45.582;5.298;2023-11-19T13:45:11;16.00;87.90
33827;DHT22;20128;45.582;5.298;2023-11-19T13:47:42;15.90;88.40
33827;DHT22;20128;45.582;5.298;2023-11-19T13:50:09;16.00;88.60
33827;DHT22;20128;45.582;5.298;2023-11-19T13:52:37;16.00;88.80
33827;DHT22;20128;45.582;5.298;2023-11-19T13:55:07;16.00;88.50
33827;DHT22;20128;45.582;5.298;2023-11-19T13:57:34;16.00;88.30
33827;DHT22;20128;45.582;5.298;2023-11-19T14:00:04;16.00;88.10
33827;DHT22;20128;45.582;5.298;2023-11-19T14:02:42;16.00;88.20
33827;DHT22;20128;45.582;5.298;2023-11-19T14:05:09;16.00;88.20
33827;DHT22;20128;45.582;5.298;2023-11-19T14:07:36;16.00;87.90
33827;DHT22;20128;45.582;5.298;2023-11-19T14:12:28;16.00;88.00
33827;DHT22;20128;45.582;5.298;2023-11-19T14:14:53;16.00;88.10
33827;DHT22;20128;45.582;5.298;2023-11-19T14:17:20;16.00;88.30
33827;DHT22;20128;45.582;5.298;2023-11-19T14:19:46;16.00;88.50
33827;DHT22;20128;45.582;5.298;2023-11-19T14:22:11;16.00;88.60
33827;DHT22;20128;45.582;5.298;2023-11-19T14:24:37;16.00;89.00
33827;DHT22;20128;45.582;5.298;2023-11-19T14:27:03;16.00;89.50
33827;DHT22;20128;45.582;5.298;2023-11-19T14:29:29;16.00;89.50
33827;DHT22;20128;45.582;5.298;2023-11-19T14:31:56;16.00;89.60
33827;DHT22;20128;45.582;5.298;2023-11-19T14:34:22;16.00;89.50
33827;DHT22;20128;45.582;5.298;2023-11-19T14:36:48;15.90;89.40
33827;DHT22;20128;45.582;5.298;2023-11-19T14:39:14;15.90;89.40
33827;DHT22;20128;45.582;5.298;2023-11-19T14:41:39;15.90;89.60
33827;DHT22;20128;45.582;5.298;2023-11-19T14:44:05;15.90;89.90
33827;DHT22;20128;45.582;5.298;2023-11-19T14:46:31;15.90;90.00
33827;DHT22;20128;45.582;5.298;2023-11-19T14:48:57;15.90;90.30
33827;DHT22;20128;45.582;5.298;2023-11-19T14:51:23;15.90;90.10
33827;DHT22;20128;45.582;5.298;2023-11-19T14:53:48;16.00;90.20
33827;DHT22;20128;45.582;5.298;2023-11-19T14:56:14;16.00;90.20
33827;DHT22;20128;45.582;5.298;2023-11-19T14:58:40;16.00;90.40
33827;DHT22;20128;45.582;5.298;2023-11-19T15:01:06;15.90;90.60
33827;DHT22;20128;45.582;5.298;2023-11-19T15:03:32;15.90;91.10
33827;DHT22;20128;45.582;5.298;2023-11-19T15:05:58;15.90;90.90
33827;DHT22;20128;45.582;5.298;2023-11-19T15:08:25;15.90;90.40
33827;DHT22;20128;45.582;5.298;2023-11-19T15:10:50;15.90;90.50
33827;DHT22;20128;45.582;5.298;2023-11-19T15:13:16;15.90;90.60
33827;DHT22;20128;45.582;5.298;2023-11-19T15:15:42;15.90;90.70
33827;DHT22;20128;45.582;5.298;2023-11-19T15:18:07;15.90;90.60
33827;DHT22;20128;45.582;5.298;2023-11-19T15:20:35;15.90;90.50
33827;DHT22;20128;45.582;5.298;2023-11-19T15:23:01;15.90;90.40
33827;DHT22;20128;45.582;5.298;2023-11-19T15:25:27;15.80;90.30
33827;DHT22;20128;45.582;5.298;2023-11-19T15:27:52;15.80;90.20
33827;DHT22;20128;45.582;5.298;2023-11-19T15:30:18;15.80;90.20
33827;DHT22;20128;45.582;5.298;2023-11-19T15:32:43;15.70;90.20
33827;DHT22;20128;45.582;5.298;2023-11-19T15:35:09;15.80;90.30
33827;DHT22;20128;45.582;5.298;2023-11-19T15:37:38;15.70;90.40
33827;DHT22;20128;45.582;5.298;2023-11-19T15:40:07;15.60;90.40
33827;DHT22;20128;45.582;5.298;2023-11-19T15:42:36;15.70;90.50
33827;DHT22;20128;45.582;5.298;2023-11-19T15:45:02;15.60;90.50
33827;DHT22;20128;45.582;5.298;2023-11-19T15:47:32;15.60;90.50
33827;DHT22;20128;45.582;5.298;2023-11-19T15:49:57;15.60;90.50
33827;DHT22;20128;45.582;5.298;2023-11-19T15:52:23;15.60;90.50
33827;DHT22;20128;45.582;5.298;2023-11-19T15:54:48;15.60;90.50
33827;DHT22;20128;45.582;5.298;2023-11-19T15:57:14;15.60;90.70